createdAt,value
2023-03-06T00:00:29.864Z,3.60
2023-03-06T00:03:15.015Z,3.22
2023-03-06T00:05:42.330Z,3.60
2023-03-06T00:08:09.513Z,3.30
2023-03-06T00:10:36.483Z,4.10
2023-03-06T00:13:08.854Z,4.07
2023-03-06T00:15:35.669Z,4.47
2023-03-06T00:18:04.888Z,4.10
2023-03-06T00:20:31.987Z,3.53
2023-03-06T00:22:59.330Z,3.27
2023-03-06T00:25:26.260Z,3.92
2023-03-06T00:27:53.446Z,3.40
2023-03-06T00:30:23.421Z,3.45
2023-03-06T00:32:52.566Z,3.55
2023-03-06T00:35:19.525Z,4.00
2023-03-06T00:37:46.709Z,4.03
2023-03-06T00:40:16.159Z,3.50
2023-03-06T00:42:43.383Z,3.38
2023-03-06T00:45:10.934Z,3.67
2023-03-06T00:47:39.786Z,3.73
2023-03-06T00:50:07.645Z,4.47
2023-03-06T00:52:34.869Z,4.25
2023-03-06T00:55:01.855Z,3.40
2023-03-06T00:57:29.134Z,3.60
2023-03-06T00:59:57.519Z,5.10
2023-03-06T01:02:25.106Z,4.20
2023-03-06T01:04:54.962Z,3.75
2023-03-06T01:07:22.273Z,3.58
2023-03-06T01:09:50.612Z,3.40
2023-03-06T01:12:17.858Z,3.30
2023-03-06T01:14:44.700Z,3.40
2023-03-06T01:17:11.922Z,3.85
2023-03-06T01:19:38.749Z,3.28
2023-03-06T01:22:05.856Z,3.40
2023-03-06T01:24:32.677Z,3.03
2023-03-06T01:26:59.843Z,4.68
2023-03-06T01:29:26.640Z,4.07
2023-03-06T01:31:53.860Z,4.10
2023-03-06T01:34:21.254Z,4.57
2023-03-06T01:36:48.479Z,3.90
2023-03-06T01:39:15.526Z,3.50
2023-03-06T01:41:42.687Z,4.80
2023-03-06T01:44:13.684Z,6.25
2023-03-06T01:46:42.658Z,4.75
2023-03-06T01:49:20.146Z,4.60
2023-03-06T01:51:58.720Z,5.97
2023-03-06T01:54:49.613Z,5.38
2023-03-06T01:57:19.744Z,5.25
2023-03-06T01:59:49.000Z,4.70
2023-03-06T02:02:16.637Z,4.60
2023-03-06T02:04:44.342Z,6.25
2023-03-06T02:07:11.782Z,6.50
2023-03-06T02:09:39.081Z,5.70
2023-03-06T02:12:10.143Z,4.45
2023-03-06T02:14:38.191Z,5.30
2023-03-06T02:17:06.038Z,4.68
2023-03-06T02:19:48.827Z,5.25
2023-03-06T02:22:16.000Z,6.28
2023-03-06T02:24:51.751Z,5.63
2023-03-06T02:27:19.938Z,4.70
2023-03-06T02:29:47.301Z,4.43
2023-03-06T02:32:15.276Z,5.32
2023-03-06T02:34:46.540Z,4.40
2023-03-06T02:37:13.703Z,4.72
2023-03-06T02:39:46.833Z,5.60
2023-03-06T02:42:22.472Z,6.60
2023-03-06T02:44:50.180Z,6.57
2023-03-06T02:47:17.453Z,7.07
2023-03-06T02:49:44.263Z,6.50
2023-03-06T02:52:11.668Z,6.63
2023-03-06T02:54:39.757Z,5.82
2023-03-06T02:57:07.638Z,5.20
2023-03-06T02:59:34.889Z,5.10
2023-03-06T03:02:04.969Z,5.93
2023-03-06T03:04:34.257Z,6.33
2023-03-06T03:07:02.170Z,5.65
2023-03-06T03:09:29.308Z,6.88
2023-03-06T03:11:56.536Z,5.72
2023-03-06T03:14:24.642Z,4.88
2023-03-06T03:16:52.225Z,5.20
2023-03-06T03:19:19.117Z,5.65
2023-03-06T03:21:46.535Z,6.07
2023-03-06T03:24:13.525Z,5.10
2023-03-06T03:26:43.019Z,5.07
2023-03-06T03:29:14.722Z,5.80
2023-03-06T03:31:41.959Z,6.28
2023-03-06T03:34:09.171Z,5.97
2023-03-06T03:36:39.375Z,5.72
2023-03-06T03:39:08.028Z,6.63
2023-03-06T03:41:35.940Z,5.97
2023-03-06T03:44:06.506Z,4.65
2023-03-06T03:46:34.016Z,4.43
2023-03-06T03:49:02.603Z,4.40
2023-03-06T03:51:30.096Z,5.22
2023-03-06T03:53:58.753Z,4.10
2023-03-06T03:56:29.460Z,4.10
2023-03-06T03:59:04.405Z,3.80
2023-03-06T04:01:39.632Z,4.47
2023-03-06T04:04:06.935Z,4.38
2023-03-06T04:06:34.238Z,3.40
2023-03-06T04:09:01.486Z,3.80
2023-03-06T04:11:28.687Z,4.20
2023-03-06T04:13:55.616Z,3.90
2023-03-06T04:16:22.876Z,4.18
2023-03-06T04:18:51.023Z,4.03
2023-03-06T04:21:18.263Z,4.00
2023-03-06T04:23:45.187Z,3.95
2023-03-06T04:26:12.860Z,3.80
2023-03-06T04:28:39.744Z,3.75
2023-03-06T04:31:07.351Z,4.30
2023-03-06T04:33:35.231Z,4.35
2023-03-06T04:36:02.506Z,4.20
2023-03-06T04:38:31.826Z,3.95
2023-03-06T04:40:58.993Z,3.97
2023-03-06T04:43:26.039Z,4.10
2023-03-06T04:45:53.250Z,3.85
2023-03-06T04:48:20.202Z,3.55
2023-03-06T04:50:47.508Z,3.72
2023-03-06T04:53:15.441Z,3.92
2023-03-06T04:55:42.613Z,3.90
2023-03-06T04:58:11.716Z,4.43
2023-03-06T05:00:38.925Z,5.40
2023-03-06T05:03:05.721Z,5.03
2023-03-06T05:05:32.864Z,5.28
2023-03-06T05:07:59.784Z,5.57
2023-03-06T05:10:27.091Z,4.53
2023-03-06T05:12:53.871Z,4.60
2023-03-06T05:15:21.174Z,4.32
2023-03-06T05:17:47.999Z,4.18
2023-03-06T05:20:16.467Z,4.10
2023-03-06T05:22:43.387Z,4.00
2023-03-06T05:25:11.475Z,4.30
2023-03-06T05:27:39.048Z,3.78
2023-03-06T05:30:08.005Z,3.95
2023-03-06T05:32:35.816Z,4.60
2023-03-06T05:35:04.120Z,5.85
2023-03-06T05:37:31.475Z,6.65
2023-03-06T05:39:58.974Z,6.38
2023-03-06T05:42:28.472Z,7.53
2023-03-06T05:44:55.781Z,6.60
2023-03-06T05:47:22.641Z,6.10
2023-03-06T05:49:49.976Z,5.45
2023-03-06T05:52:17.639Z,5.78
2023-03-06T05:54:44.839Z,6.90
2023-03-06T05:57:11.700Z,7.00
2023-03-06T05:59:38.855Z,6.30
2023-03-06T06:02:05.852Z,6.75
2023-03-06T06:04:33.032Z,5.55
2023-03-06T06:07:00.943Z,5.22
2023-03-06T06:09:29.410Z,4.37
2023-03-06T06:11:58.920Z,4.70
2023-03-06T06:14:26.594Z,4.40
2023-03-06T06:16:53.753Z,4.15
2023-03-06T06:19:21.895Z,4.50
2023-03-06T06:21:51.611Z,4.43
2023-03-06T06:24:21.109Z,5.00
2023-03-06T06:26:50.816Z,4.57
2023-03-06T06:29:18.017Z,4.65
2023-03-06T06:31:45.339Z,5.45
2023-03-06T06:34:13.283Z,5.40
2023-03-06T06:36:40.756Z,5.38
2023-03-06T06:39:08.857Z,5.68
2023-03-06T06:41:59.302Z,5.85
2023-03-06T06:44:23.125Z,5.50
2023-03-06T06:47:21.290Z,5.23
2023-03-06T06:49:37.644Z,5.07
2023-03-06T06:52:05.432Z,5.53
2023-03-06T06:54:34.051Z,7.50
2023-03-06T06:57:00.919Z,7.55
2023-03-06T06:59:28.032Z,7.47
2023-03-06T07:01:54.862Z,8.43
2023-03-06T07:04:22.098Z,6.90
2023-03-06T07:06:48.925Z,7.13
2023-03-06T07:09:16.516Z,6.75
2023-03-06T07:11:43.514Z,5.77
2023-03-06T07:14:10.667Z,6.72
2023-03-06T07:16:37.631Z,6.38
2023-03-06T07:19:04.833Z,7.20
2023-03-06T07:21:31.912Z,6.57
2023-03-06T07:23:59.171Z,6.90
2023-03-06T07:26:27.756Z,6.70
2023-03-06T07:28:55.284Z,7.40
2023-03-06T07:31:24.746Z,7.30
2023-03-06T07:33:53.651Z,7.32
2023-03-06T07:36:22.019Z,7.33
2023-03-06T07:38:49.445Z,7.47
2023-03-06T07:41:17.277Z,7.25
2023-03-06T07:43:45.594Z,6.43
2023-03-06T07:46:14.393Z,7.53
2023-03-06T07:48:42.849Z,6.70
2023-03-06T07:51:15.149Z,8.70
2023-03-06T07:53:42.589Z,8.20
2023-03-06T07:56:11.233Z,8.02
2023-03-06T07:58:40.860Z,7.43
2023-03-06T08:01:10.629Z,9.13
2023-03-06T08:03:38.056Z,8.80
2023-03-06T08:06:09.002Z,11.18
2023-03-06T08:08:39.389Z,9.10
2023-03-06T08:11:07.800Z,12.27
2023-03-06T08:13:35.796Z,11.40
2023-03-06T08:16:03.452Z,11.50
2023-03-06T08:18:30.901Z,8.15
2023-03-06T08:21:10.894Z,8.00
2023-03-06T08:23:38.454Z,8.05
2023-03-06T08:26:11.838Z,8.73
2023-03-06T08:28:39.228Z,7.85
2023-03-06T08:31:25.055Z,7.72
2023-03-06T08:33:53.261Z,9.05
2023-03-06T08:36:20.105Z,8.38
2023-03-06T08:38:47.584Z,13.50
2023-03-06T08:41:14.576Z,10.02
2023-03-06T08:43:41.866Z,8.95
2023-03-06T08:46:11.205Z,8.65
2023-03-06T08:48:38.874Z,17.35
2023-03-06T08:51:05.952Z,14.43
2023-03-06T08:53:42.570Z,10.43
2023-03-06T08:56:21.023Z,9.27
2023-03-06T08:58:48.716Z,7.47
2023-03-06T09:01:17.086Z,8.43
2023-03-06T09:03:44.581Z,8.60
2023-03-06T09:06:11.844Z,7.68
2023-03-06T09:08:43.157Z,7.90
2023-03-06T09:11:14.745Z,7.10
2023-03-06T09:13:43.049Z,8.77
2023-03-06T09:16:11.390Z,8.10
2023-03-06T09:18:38.876Z,8.00
2023-03-06T09:21:06.366Z,7.25
2023-03-06T09:23:34.196Z,13.93
2023-03-06T09:26:02.043Z,9.63
2023-03-06T09:28:29.375Z,7.87
2023-03-06T09:30:56.237Z,8.18
2023-03-06T09:33:24.356Z,9.43
2023-03-06T09:35:54.056Z,8.40
2023-03-06T09:38:27.256Z,8.35
2023-03-06T09:41:27.768Z,8.83
2023-03-06T09:44:06.409Z,7.72
2023-03-06T09:46:43.149Z,8.25
2023-03-06T09:49:34.646Z,9.18
2023-03-06T09:52:38.713Z,7.65
2023-03-06T09:55:24.373Z,8.70
2023-03-06T09:58:13.968Z,11.52
2023-03-06T10:00:58.056Z,11.20
2023-03-06T10:03:38.186Z,10.20
2023-03-06T10:06:16.040Z,9.90
2023-03-06T10:08:55.207Z,8.90
2023-03-06T10:11:28.263Z,10.25
2023-03-06T10:14:12.362Z,8.68
2023-03-06T10:16:40.389Z,9.82
2023-03-06T10:19:19.156Z,10.32
2023-03-06T10:21:52.454Z,11.60
2023-03-06T10:24:52.487Z,9.85
2023-03-06T10:27:35.377Z,8.55
2023-03-06T10:30:26.937Z,9.18
2023-03-06T10:32:58.721Z,8.25
2023-03-06T10:35:31.401Z,8.37
2023-03-06T10:38:13.674Z,8.45
2023-03-06T10:40:49.985Z,8.52
2023-03-06T10:43:17.353Z,7.88
2023-03-06T10:45:52.518Z,8.35
2023-03-06T10:48:23.270Z,7.30
2023-03-06T10:50:50.562Z,7.43
2023-03-06T10:53:20.785Z,7.70
2023-03-06T10:55:58.663Z,7.80
2023-03-06T10:58:28.772Z,7.30
2023-03-06T11:01:05.034Z,9.20
2023-03-06T11:03:33.085Z,8.98
2023-03-06T11:06:30.555Z,7.90
2023-03-06T11:09:22.746Z,7.65
2023-03-06T11:11:53.793Z,6.50
2023-03-06T11:14:27.439Z,7.97
2023-03-06T11:16:54.528Z,8.70
2023-03-06T11:19:27.325Z,7.15
2023-03-06T11:22:17.612Z,8.88
2023-03-06T11:24:50.391Z,8.70
2023-03-06T11:27:25.454Z,8.43
2023-03-06T11:29:55.742Z,7.07
2023-03-06T11:32:43.123Z,6.30
2023-03-06T11:35:15.388Z,6.80
2023-03-06T11:37:58.469Z,6.57
2023-03-06T11:40:37.088Z,6.97
2023-03-06T11:43:07.458Z,6.90
2023-03-06T11:45:57.198Z,6.95
2023-03-06T11:48:42.423Z,5.80
2023-03-06T11:51:19.049Z,6.10
2023-03-06T11:53:45.865Z,6.70
2023-03-06T11:56:18.456Z,7.43
2023-03-06T11:59:19.788Z,7.22
2023-03-06T12:02:11.491Z,6.28
2023-03-06T12:04:55.791Z,6.07
2023-03-06T12:07:30.629Z,5.80
2023-03-06T12:10:23.686Z,5.75
2023-03-06T12:13:15.822Z,6.63
2023-03-06T12:16:03.726Z,5.18
2023-03-06T12:18:56.216Z,5.53
2023-03-06T12:21:43.394Z,6.20
2023-03-06T12:24:41.398Z,5.13
2023-03-06T12:27:22.355Z,5.82
2023-03-06T12:29:57.899Z,5.43
2023-03-06T12:32:44.254Z,5.82
2023-03-06T12:35:22.737Z,5.53
2023-03-06T12:37:58.608Z,6.32
2023-03-06T12:40:46.355Z,6.00
2023-03-06T12:43:32.217Z,6.00
2023-03-06T12:46:26.592Z,5.65
2023-03-06T12:49:08.012Z,6.47
2023-03-06T12:51:36.037Z,5.88
2023-03-06T12:54:03.476Z,6.22
2023-03-06T12:56:32.102Z,5.45
2023-03-06T12:59:03.377Z,5.65
2023-03-06T13:02:01.332Z,5.50
2023-03-06T13:04:48.867Z,6.05
2023-03-06T13:07:53.466Z,8.00
2023-03-06T13:10:27.914Z,6.57
2023-03-06T13:12:58.119Z,5.32
2023-03-06T13:15:41.159Z,4.97
2023-03-06T13:18:23.521Z,5.85
2023-03-06T13:20:55.443Z,6.68
2023-03-06T13:23:35.407Z,5.40
2023-03-06T13:26:03.604Z,5.72
2023-03-06T13:28:46.368Z,5.70
2023-03-06T13:31:26.397Z,5.55
2023-03-06T13:33:57.134Z,5.55
2023-03-06T13:36:28.478Z,5.28
2023-03-06T13:38:59.664Z,5.80
2023-03-06T13:41:34.626Z,5.10
2023-03-06T13:44:24.988Z,5.30
2023-03-06T13:46:58.738Z,5.55
2023-03-06T13:49:26.690Z,6.18
2023-03-06T13:51:53.602Z,5.53
2023-03-06T13:54:20.751Z,5.50
2023-03-06T13:57:01.259Z,5.25
2023-03-06T13:59:37.706Z,5.43
2023-03-06T14:02:22.084Z,5.15
2023-03-06T14:04:59.003Z,5.63
2023-03-06T14:07:25.826Z,5.03
2023-03-06T14:10:14.666Z,6.28
2023-03-06T14:13:03.150Z,6.20
2023-03-06T14:15:42.882Z,5.30
2023-03-06T14:18:20.806Z,5.28
2023-03-06T14:20:56.461Z,5.13
2023-03-06T14:23:35.674Z,5.70
2023-03-06T14:26:15.142Z,5.57
2023-03-06T14:29:03.245Z,4.60
2023-03-06T14:31:37.590Z,6.45
2023-03-06T14:34:15.492Z,6.13
2023-03-06T14:36:45.733Z,4.53
2023-03-06T14:39:43.480Z,5.05
2023-03-06T14:42:25.167Z,4.47
2023-03-06T14:45:18.683Z,4.25
2023-03-06T14:47:53.351Z,4.10
2023-03-06T14:50:32.641Z,4.68
2023-03-06T14:53:06.276Z,4.93
2023-03-06T14:55:35.740Z,5.10
2023-03-06T14:58:08.450Z,5.50
2023-03-06T15:00:41.740Z,4.90
2023-03-06T15:03:17.715Z,4.78
2023-03-06T15:05:46.723Z,4.80
2023-03-06T15:08:26.947Z,5.07
2023-03-06T15:11:03.086Z,5.07
2023-03-06T15:13:32.377Z,4.60
2023-03-06T15:16:04.472Z,5.18
2023-03-06T15:18:42.511Z,4.45
2023-03-06T15:21:10.708Z,5.93
2023-03-06T15:23:43.809Z,5.60
2023-03-06T15:26:22.504Z,5.63
2023-03-06T15:29:09.380Z,7.95
2023-03-06T15:31:42.154Z,6.28
2023-03-06T15:34:09.345Z,5.93
2023-03-06T15:36:56.591Z,7.70
2023-03-06T15:39:31.206Z,4.83
2023-03-06T15:42:04.397Z,3.92
2023-03-06T15:44:32.912Z,4.15
2023-03-06T15:47:08.527Z,4.20
2023-03-06T15:49:37.729Z,4.57
2023-03-06T15:52:06.211Z,5.67
2023-03-06T15:54:33.522Z,4.50
2023-03-06T15:57:00.912Z,6.97
2023-03-06T15:59:33.318Z,4.63
2023-03-06T16:02:04.217Z,3.50
2023-03-06T16:04:31.382Z,3.80
2023-03-06T16:06:58.392Z,3.50
2023-03-06T16:09:25.502Z,4.00
2023-03-06T16:11:52.344Z,3.55
2023-03-06T16:14:23.703Z,4.20
2023-03-06T16:16:52.627Z,4.13
2023-03-06T16:19:26.846Z,3.67
2023-03-06T16:21:57.336Z,3.80
2023-03-06T16:24:26.284Z,3.25
2023-03-06T16:26:55.170Z,3.65
2023-03-06T16:29:25.528Z,4.93
2023-03-06T16:31:52.516Z,3.92
2023-03-06T16:34:19.951Z,4.20
2023-03-06T16:36:48.602Z,5.30
2023-03-06T16:39:18.097Z,7.53
2023-03-06T16:41:49.360Z,4.60
2023-03-06T16:44:16.583Z,4.32
2023-03-06T16:46:46.028Z,4.70
2023-03-06T16:49:18.525Z,4.10
2023-03-06T16:51:45.787Z,4.50
2023-03-06T16:54:13.979Z,3.33
2023-03-06T16:56:41.283Z,3.60
2023-03-06T16:59:08.751Z,3.95
2023-03-06T17:01:35.936Z,3.80
2023-03-06T17:04:03.768Z,4.10
2023-03-06T17:06:31.670Z,7.00
2023-03-06T17:09:00.213Z,5.57
2023-03-06T17:11:27.699Z,3.85
2023-03-06T17:13:55.491Z,3.50
2023-03-06T17:16:22.700Z,4.28
2023-03-06T17:18:49.954Z,4.53
2023-03-06T17:21:17.292Z,4.75
2023-03-06T17:23:44.864Z,4.22
2023-03-06T17:26:14.618Z,4.32
2023-03-06T17:28:42.357Z,3.88
2023-03-06T17:31:17.740Z,4.00
2023-03-06T17:33:46.031Z,5.22
2023-03-06T17:36:14.734Z,31.25
2023-03-06T17:38:42.969Z,12.95
2023-03-06T17:41:11.348Z,8.85
2023-03-06T17:43:39.252Z,16.17
2023-03-06T17:46:11.599Z,8.43
2023-03-06T17:48:39.372Z,9.38
2023-03-06T17:51:06.542Z,20.13
2023-03-06T17:53:33.778Z,12.20
2023-03-06T17:56:06.803Z,7.60
2023-03-06T17:58:35.025Z,9.15
2023-03-06T18:01:17.175Z,6.65
2023-03-06T18:03:46.492Z,8.20
2023-03-06T18:06:13.723Z,5.18
2023-03-06T18:08:41.206Z,4.43
2023-03-06T18:11:09.800Z,4.95
2023-03-06T18:13:39.850Z,4.90
2023-03-06T18:16:07.741Z,5.00
2023-03-06T18:18:35.186Z,4.13
2023-03-06T18:21:06.881Z,4.33
2023-03-06T18:23:34.319Z,5.20
2023-03-06T18:26:19.286Z,5.82
2023-03-06T18:28:49.029Z,6.28
2023-03-06T18:31:24.638Z,5.57
2023-03-06T18:33:53.657Z,5.20
2023-03-06T18:36:22.889Z,5.65
2023-03-06T18:38:50.373Z,6.30
2023-03-06T18:41:19.000Z,6.60
2023-03-06T18:43:52.330Z,8.63
2023-03-06T18:46:19.240Z,12.87
2023-03-06T18:48:46.494Z,7.95
2023-03-06T18:51:14.214Z,7.30
2023-03-06T18:53:42.456Z,6.60
2023-03-06T18:56:10.813Z,5.00
2023-03-06T18:58:37.984Z,4.90
2023-03-06T19:01:08.023Z,4.63
2023-03-06T19:03:35.458Z,4.00
2023-03-06T19:06:09.812Z,4.70
2023-03-06T19:08:38.416Z,5.50
2023-03-06T19:11:08.427Z,5.30
2023-03-06T19:13:35.934Z,5.90
2023-03-06T19:16:03.373Z,4.85
2023-03-06T19:18:30.828Z,5.57
2023-03-06T19:21:08.345Z,5.25
2023-03-06T19:23:36.542Z,4.50
2023-03-06T19:26:04.041Z,4.38
2023-03-06T19:28:31.218Z,5.72
2023-03-06T19:30:58.021Z,5.15
2023-03-06T19:33:25.365Z,4.75
2023-03-06T19:35:52.305Z,8.40
2023-03-06T19:38:19.438Z,6.35
2023-03-06T19:40:50.351Z,5.90
2023-03-06T19:43:17.581Z,5.78
2023-03-06T19:45:44.726Z,5.38
2023-03-06T19:48:12.593Z,5.03
2023-03-06T19:50:40.399Z,4.43
2023-03-06T19:53:07.965Z,5.13
2023-03-06T19:55:34.982Z,4.60
2023-03-06T19:58:02.186Z,5.15
2023-03-06T20:00:29.341Z,4.80
2023-03-06T20:02:57.341Z,4.70
2023-03-06T20:05:24.187Z,4.65
2023-03-06T20:07:51.549Z,3.63
2023-03-06T20:10:18.861Z,3.47
2023-03-06T20:12:46.053Z,4.47
2023-03-06T20:15:13.193Z,4.30
2023-03-06T20:17:40.827Z,4.00
2023-03-06T20:20:09.880Z,4.45
2023-03-06T20:22:37.174Z,4.55
2023-03-06T20:25:04.518Z,3.60
2023-03-06T20:27:31.699Z,3.72
2023-03-06T20:29:58.526Z,3.92
2023-03-06T20:32:25.710Z,3.80
2023-03-06T20:34:52.595Z,3.30
2023-03-06T20:37:19.768Z,3.60
2023-03-06T20:39:46.856Z,3.17
2023-03-06T20:42:14.431Z,3.42
2023-03-06T20:44:41.397Z,3.05
2023-03-06T20:47:09.116Z,5.00
2023-03-06T20:49:36.768Z,4.90
2023-03-06T20:52:04.183Z,4.82
2023-03-06T20:54:31.052Z,5.40
2023-03-06T20:56:58.296Z,6.10
2023-03-06T20:59:25.219Z,5.18
2023-03-06T21:01:52.435Z,4.50
2023-03-06T21:04:19.339Z,3.95
2023-03-06T21:06:47.294Z,4.03
2023-03-06T21:09:17.470Z,3.50
2023-03-06T21:11:45.113Z,3.70
2023-03-06T21:14:14.107Z,4.47
2023-03-06T21:16:42.256Z,3.95
2023-03-06T21:19:09.822Z,3.45
2023-03-06T21:21:36.988Z,3.90
2023-03-06T21:24:04.462Z,4.38
2023-03-06T21:26:33.929Z,4.10
2023-03-06T21:29:01.593Z,4.40
2023-03-06T21:31:29.222Z,4.00
2023-03-06T21:33:56.969Z,3.80
2023-03-06T21:36:24.646Z,4.10
2023-03-06T21:38:52.805Z,4.13
2023-03-06T21:41:24.809Z,4.60
2023-03-06T21:43:56.597Z,4.10
2023-03-06T21:46:24.408Z,4.63
2023-03-06T21:48:51.238Z,4.80
2023-03-06T21:51:20.515Z,4.30
2023-03-06T21:53:48.337Z,4.50
2023-03-06T21:56:17.823Z,4.05
2023-03-06T21:58:45.567Z,4.10
2023-03-06T22:01:17.774Z,5.47
2023-03-06T22:03:45.191Z,4.47
2023-03-06T22:06:20.706Z,4.40
2023-03-06T22:08:47.735Z,4.47
2023-03-06T22:11:17.376Z,4.35
2023-03-06T22:13:45.374Z,4.47
2023-03-06T22:16:12.814Z,4.73
2023-03-06T22:18:40.089Z,4.90
2023-03-06T22:21:09.059Z,4.65
2023-03-06T22:23:36.275Z,5.35
2023-03-06T22:26:05.903Z,4.35
2023-03-06T22:28:33.392Z,4.27
2023-03-06T22:31:11.819Z,5.10
2023-03-06T22:33:39.017Z,5.70
2023-03-06T22:36:08.981Z,6.65
2023-03-06T22:38:37.875Z,5.30
2023-03-06T22:41:05.703Z,5.37
2023-03-06T22:43:32.858Z,5.28
2023-03-06T22:46:04.856Z,4.68
2023-03-06T22:48:32.359Z,4.60
2023-03-06T22:51:07.869Z,5.28
2023-03-06T22:53:35.093Z,5.40
2023-03-06T22:56:04.628Z,6.85
2023-03-06T22:58:35.713Z,8.55
2023-03-06T23:01:30.160Z,6.72
2023-03-06T23:03:59.326Z,5.50
2023-03-06T23:06:32.109Z,5.70
2023-03-06T23:09:14.806Z,5.38
2023-03-06T23:12:00.705Z,5.07
2023-03-06T23:14:49.847Z,7.53
2023-03-06T23:17:35.751Z,7.85
2023-03-06T23:20:21.655Z,6.23
2023-03-06T23:23:07.690Z,6.50
2023-03-06T23:25:43.809Z,5.65
2023-03-06T23:28:11.658Z,6.90
2023-03-06T23:30:39.553Z,5.95
2023-03-06T23:33:07.406Z,6.10
2023-03-06T23:35:35.732Z,6.03
2023-03-06T23:38:03.494Z,6.75
2023-03-06T23:40:33.604Z,6.53
2023-03-06T23:43:00.855Z,5.95
2023-03-06T23:45:27.709Z,4.67
2023-03-06T23:47:54.904Z,5.57
2023-03-06T23:50:23.181Z,5.90
2023-03-06T23:52:54.358Z,5.53
2023-03-06T23:55:21.727Z,5.97
2023-03-06T23:57:48.945Z,5.87
